createdAt,value
2017-04-18T02:22:43.974Z,0
2017-04-18T02:23:24.484Z,0
2017-04-18T02:24:05.135Z,0
2017-04-18T02:24:45.637Z,0
2017-04-18T02:25:26.246Z,0
2017-04-18T02:26:07.848Z,0
2017-04-18T02:26:48.441Z,0
2017-04-18T02:27:28.972Z,0
2017-04-18T02:28:09.550Z,0
2017-04-18T02:28:50.167Z,0
2017-04-18T02:29:30.736Z,0
2017-04-18T02:30:11.270Z,0
2017-04-18T02:30:51.869Z,0
2017-04-18T02:31:32.428Z,0
2017-04-18T02:32:13.090Z,0
2017-04-18T02:32:53.733Z,0
2017-04-18T02:33:34.350Z,0
2017-04-18T02:34:14.907Z,0
2017-04-18T02:34:55.478Z,0
2017-04-18T02:35:36.039Z,0
2017-04-18T02:36:16.650Z,0
2017-04-18T02:36:57.243Z,0
2017-04-18T02:37:37.887Z,0
2017-04-18T02:38:18.503Z,0
2017-04-18T02:38:59.090Z,0
2017-04-18T02:39:39.643Z,0
2017-04-18T02:40:20.269Z,0
2017-04-18T02:41:00.829Z,0
2017-04-18T02:41:41.407Z,0
2017-04-18T02:42:22.353Z,0
2017-04-18T02:43:03.212Z,0
2017-04-18T02:43:43.734Z,0
2017-04-18T02:44:24.284Z,0
2017-04-18T02:45:04.837Z,0
2017-04-18T02:45:45.389Z,0
2017-04-18T02:46:26.037Z,0
2017-04-18T02:47:06.605Z,0
2017-04-18T02:47:47.192Z,0
2017-04-18T02:48:27.797Z,0
2017-04-18T02:49:08.333Z,0
2017-04-18T02:49:48.971Z,0
2017-04-18T02:50:29.544Z,0
2017-04-18T02:51:10.107Z,0
2017-04-18T02:51:50.763Z,0
2017-04-18T02:52:31.310Z,0
2017-04-18T02:53:11.952Z,0
2017-04-18T02:53:52.498Z,0
2017-04-18T02:54:33.068Z,0
2017-04-18T02:55:13.601Z,0
2017-04-18T02:55:54.151Z,0
2017-04-18T02:56:34.706Z,0
2017-04-18T02:57:15.253Z,0
2017-04-18T02:57:55.909Z,0
2017-04-18T02:58:36.459Z,0
2017-04-18T02:59:17.296Z,0
2017-04-18T02:59:57.820Z,0
2017-04-18T03:00:38.538Z,0
2017-04-18T03:01:19.071Z,0
2017-04-18T03:01:59.721Z,0
2017-04-18T03:02:40.269Z,0
2017-04-18T03:03:20.877Z,0
2017-04-18T03:04:02.192Z,0
2017-04-18T03:04:42.874Z,0
2017-04-18T03:05:23.405Z,0
2017-04-18T03:06:03.918Z,0
2017-04-18T03:06:44.522Z,0
2017-04-18T03:07:25.103Z,0
2017-04-18T03:08:05.710Z,0
2017-04-18T03:08:47.125Z,0
2017-04-18T03:09:27.750Z,0
2017-04-18T03:10:08.334Z,0
2017-04-18T03:10:48.936Z,0
2017-04-18T03:11:29.468Z,0
2017-04-18T03:12:09.969Z,0
2017-04-18T03:12:50.597Z,0
2017-04-18T03:13:31.112Z,0
2017-04-18T03:14:12.014Z,0
2017-04-18T03:14:52.594Z,0
2017-04-18T03:15:33.123Z,0
2017-04-18T03:16:13.695Z,0
2017-04-18T03:16:54.287Z,0
2017-04-18T03:17:34.820Z,0
2017-04-18T03:18:15.392Z,0
2017-04-18T03:18:55.966Z,0
2017-04-18T03:19:36.477Z,0
2017-04-18T03:20:17.065Z,0
2017-04-18T03:20:57.612Z,0
2017-04-18T03:21:38.174Z,0
2017-04-18T03:22:18.727Z,0
2017-04-18T03:22:59.322Z,0
2017-04-18T03:23:40.278Z,0
2017-04-18T03:24:20.815Z,0
2017-04-18T03:25:01.365Z,0
2017-04-18T03:25:42.069Z,0
2017-04-18T03:26:22.621Z,0
2017-04-18T03:27:03.158Z,0
2017-04-18T03:27:43.738Z,0
2017-04-18T03:28:24.326Z,0
2017-04-18T03:29:04.929Z,0
2017-04-18T03:29:45.448Z,0
2017-04-18T03:30:26.040Z,0
2017-04-18T03:31:06.630Z,0
2017-04-18T03:31:47.232Z,0
2017-04-18T03:32:27.768Z,0
2017-04-18T03:33:08.348Z,0
2017-04-18T03:33:48.950Z,0
2017-04-18T03:34:29.531Z,0
2017-04-18T03:35:10.044Z,0
2017-04-18T03:35:50.667Z,0
2017-04-18T03:36:31.246Z,0
2017-04-18T03:37:11.939Z,0
2017-04-18T03:37:52.491Z,0
2017-04-18T03:38:33.046Z,0
2017-04-18T03:39:13.604Z,0
2017-04-18T03:39:54.153Z,0
2017-04-18T03:40:34.697Z,0
2017-04-18T03:41:15.217Z,0
2017-04-18T03:41:55.744Z,0
2017-04-18T03:42:36.355Z,0
2017-04-18T03:43:16.858Z,0
2017-04-18T03:43:57.439Z,0
2017-04-18T03:44:39.017Z,0
2017-04-18T03:45:19.528Z,0
2017-04-18T03:46:00.089Z,0
2017-04-18T03:46:40.682Z,0
2017-04-18T03:47:21.197Z,0
2017-04-18T03:48:01.840Z,0
2017-04-18T03:48:42.429Z,0
2017-04-18T03:49:22.940Z,0
2017-04-18T03:50:03.483Z,0
2017-04-18T03:50:44.081Z,0
2017-04-18T03:51:24.647Z,0
2017-04-18T03:52:05.291Z,0
2017-04-18T03:52:45.836Z,0
2017-04-18T03:53:27.416Z,0
2017-04-18T03:54:08.055Z,0
2017-04-18T03:54:48.600Z,0
2017-04-18T03:55:30.204Z,0
2017-04-18T03:56:10.833Z,0
2017-04-18T03:56:51.379Z,0
2017-04-18T03:57:31.935Z,0
2017-04-18T03:58:12.484Z,0
2017-04-18T03:58:53.034Z,0
2017-04-18T03:59:33.582Z,0
2017-04-18T04:00:15.155Z,0
2017-04-18T04:00:55.679Z,0
2017-04-18T04:01:36.259Z,0
2017-04-18T04:02:16.863Z,0
2017-04-18T04:02:57.461Z,0
2017-04-18T04:03:38.003Z,0
2017-04-18T04:04:18.568Z,0
2017-04-18T04:04:59.163Z,0
2017-04-18T04:05:40.788Z,0
2017-04-18T04:06:21.305Z,0
2017-04-18T04:07:01.913Z,0
2017-04-18T04:07:42.516Z,0
2017-04-18T04:08:24.116Z,0
2017-04-18T04:09:04.658Z,0
2017-04-18T04:09:45.222Z,0
2017-04-18T04:10:25.849Z,0
2017-04-18T04:11:06.422Z,0
2017-04-18T04:11:46.985Z,0
2017-04-18T04:12:28.569Z,0
2017-04-18T04:13:11.208Z,0
2017-04-18T04:13:51.798Z,0
2017-04-18T04:14:32.317Z,0
2017-04-18T04:15:12.908Z,0
2017-04-18T04:15:53.505Z,0
2017-04-18T04:16:36.113Z,0
2017-04-18T04:17:17.692Z,0
2017-04-18T04:17:58.779Z,0
2017-04-18T04:18:39.335Z,0
2017-04-18T04:19:19.895Z,0
2017-04-18T04:20:00.519Z,4
2017-04-18T04:20:41.043Z,4
2017-04-18T04:21:21.657Z,4
2017-04-18T04:22:02.170Z,4
2017-04-18T04:22:42.721Z,4
2017-04-18T04:23:23.342Z,0
2017-04-18T04:24:03.858Z,0
2017-04-18T04:24:46.507Z,0
2017-04-18T04:25:28.126Z,0
2017-04-18T04:26:08.660Z,4
2017-04-18T04:26:51.219Z,4
2017-04-18T04:27:31.834Z,4
2017-04-18T04:28:12.360Z,4
2017-04-18T04:28:52.982Z,4
2017-04-18T04:29:33.585Z,4
2017-04-18T04:30:14.104Z,4
2017-04-18T04:30:54.627Z,4
2017-04-18T04:31:35.150Z,4
2017-04-18T04:32:15.687Z,4
2017-04-18T04:32:56.295Z,8
2017-04-18T04:33:36.793Z,8
2017-04-18T04:34:18.350Z,8
2017-04-18T04:34:59.973Z,4
2017-04-18T04:35:40.486Z,4
2017-04-18T04:36:21.036Z,8
2017-04-18T04:37:07.105Z,8
2017-04-18T04:37:48.679Z,8
2017-04-18T04:38:30.263Z,8
2017-04-18T04:39:11.830Z,8
2017-04-18T04:39:55.193Z,8
2017-04-18T04:40:35.692Z,8
2017-04-18T04:41:16.269Z,8
2017-04-18T04:41:56.805Z,12
2017-04-18T04:42:37.400Z,12
2017-04-18T04:43:18.929Z,12
2017-04-18T04:44:00.552Z,12
2017-04-18T04:44:41.104Z,8
2017-04-18T04:45:21.661Z,12
2017-04-18T04:46:02.207Z,12
2017-04-18T04:46:42.799Z,12
2017-04-18T04:47:23.364Z,12
2017-04-18T04:48:03.912Z,12
2017-04-18T04:48:45.934Z,16
2017-04-18T04:49:26.463Z,16
2017-04-18T04:50:07.055Z,16
2017-04-18T04:50:47.570Z,16
2017-04-18T04:51:30.146Z,12
2017-04-18T04:52:10.665Z,12
2017-04-18T04:52:53.240Z,16
2017-04-18T04:53:33.761Z,16
2017-04-18T04:54:14.277Z,16
2017-04-18T04:54:56.212Z,20
2017-04-18T04:55:36.826Z,20
2017-04-18T04:56:17.337Z,16
2017-04-18T04:56:57.933Z,20
2017-04-18T04:57:38.599Z,20
2017-04-18T04:58:19.142Z,20
2017-04-18T04:59:00.697Z,20
2017-04-18T04:59:41.199Z,20
2017-04-18T05:00:26.434Z,20
2017-04-18T05:01:06.971Z,24
2017-04-18T05:01:52.129Z,20
2017-04-18T05:02:32.651Z,24
2017-04-18T05:03:13.221Z,24
2017-04-18T05:03:54.803Z,20
2017-04-18T05:04:35.314Z,24
2017-04-18T05:05:16.871Z,24
2017-04-18T05:05:57.398Z,28
2017-04-18T05:06:38.952Z,24
2017-04-18T05:07:19.494Z,28
2017-04-18T05:08:00.260Z,24
2017-04-18T05:08:40.809Z,28
2017-04-18T05:09:22.404Z,28
2017-04-18T05:10:02.961Z,28
2017-04-18T05:10:45.534Z,32
2017-04-18T05:11:26.076Z,32
2017-04-18T05:12:07.658Z,28
2017-04-18T05:12:48.314Z,28
2017-04-18T05:13:30.911Z,32
2017-04-18T05:14:11.452Z,32
2017-04-18T05:14:52.010Z,32
2017-04-18T05:15:32.562Z,32
2017-04-18T05:16:13.137Z,32
2017-04-18T05:16:55.733Z,36
2017-04-18T05:17:36.357Z,32
2017-04-18T05:18:17.934Z,32
2017-04-18T05:18:58.489Z,36
2017-04-18T05:19:41.101Z,36
2017-04-18T05:20:21.735Z,36
2017-04-18T05:21:02.287Z,36
2017-04-18T05:21:44.887Z,36
2017-04-18T05:22:27.492Z,40
2017-04-18T05:23:08.135Z,36
2017-04-18T05:23:48.663Z,36
2017-04-18T05:24:29.239Z,44
2017-04-18T05:25:09.792Z,44
2017-04-18T05:25:50.364Z,48
2017-04-18T05:26:30.952Z,52
2017-04-18T05:27:12.568Z,48
2017-04-18T05:27:53.093Z,52
2017-04-18T05:28:33.683Z,56
2017-04-18T05:29:14.215Z,52
2017-04-18T05:29:54.723Z,60
2017-04-18T05:30:35.346Z,60
2017-04-18T05:31:15.941Z,56
2017-04-18T05:31:56.475Z,56
2017-04-18T05:32:37.088Z,60
2017-04-18T05:33:22.659Z,56
2017-04-18T05:34:03.193Z,52
2017-04-18T05:34:43.839Z,52
2017-04-18T05:35:25.381Z,52
2017-04-18T05:36:05.989Z,52
2017-04-18T05:36:46.515Z,52
2017-04-18T05:37:27.091Z,52
2017-04-18T05:38:07.628Z,52
2017-04-18T05:38:48.282Z,52
2017-04-18T05:39:28.789Z,56
2017-04-18T05:40:13.912Z,52
2017-04-18T05:40:54.486Z,52
2017-04-18T05:41:35.110Z,56
2017-04-18T05:42:15.627Z,56
2017-04-18T05:42:56.237Z,56
2017-04-18T05:43:37.876Z,56
2017-04-18T05:44:18.386Z,56
2017-04-18T05:44:59.425Z,56
2017-04-18T05:45:40.031Z,52
2017-04-18T05:46:20.549Z,52
2017-04-18T05:47:01.196Z,52
2017-04-18T05:47:43.784Z,56
2017-04-18T05:48:24.341Z,60
2017-04-18T05:49:04.891Z,60
2017-04-18T05:49:45.496Z,60
2017-04-18T05:50:27.170Z,60
2017-04-18T05:51:07.711Z,60
2017-04-18T05:51:48.261Z,60
2017-04-18T05:52:28.835Z,64
2017-04-18T05:53:09.467Z,60
2017-04-18T05:53:52.078Z,60
2017-04-18T05:54:32.755Z,64
2017-04-18T05:55:13.415Z,72
2017-04-18T05:55:54.029Z,88
2017-04-18T05:56:35.603Z,92
2017-04-18T05:57:16.116Z,92
2017-04-18T05:57:56.715Z,88
2017-04-18T05:58:38.271Z,76
2017-04-18T05:59:18.843Z,56
2017-04-18T05:59:59.343Z,52
2017-04-18T06:00:39.929Z,52
2017-04-18T06:01:20.492Z,48
2017-04-18T06:02:01.535Z,48
2017-04-18T06:02:42.078Z,36
2017-04-18T06:03:22.694Z,40
2017-04-18T06:04:03.247Z,40
2017-04-18T06:04:43.767Z,44
2017-04-18T06:05:24.335Z,44
2017-04-18T06:06:04.851Z,36
2017-04-18T06:06:45.456Z,28
2017-04-18T06:07:25.970Z,28
2017-04-18T06:08:06.622Z,28
2017-04-18T06:08:47.194Z,28
2017-04-18T06:09:27.801Z,32
2017-04-18T06:10:08.334Z,36
2017-04-18T06:10:48.837Z,36
2017-04-18T06:11:29.482Z,40
2017-04-18T06:12:10.015Z,44
2017-04-18T06:12:50.602Z,44
2017-04-18T06:13:31.228Z,44
2017-04-18T06:14:11.855Z,44
2017-04-18T06:14:52.412Z,44
2017-04-18T06:15:32.979Z,52
2017-04-18T06:16:13.492Z,64
2017-04-18T06:16:54.060Z,52
2017-04-18T06:17:34.574Z,60
2017-04-18T06:18:15.105Z,68
2017-04-18T06:18:55.639Z,76
2017-04-18T06:19:36.161Z,84
2017-04-18T06:20:16.830Z,96
2017-04-18T06:22:14.978Z,116
2017-04-18T06:22:55.531Z,132
2017-04-18T06:23:36.076Z,140
2017-04-18T06:24:16.657Z,140
2017-04-18T06:24:57.240Z,148
2017-04-18T06:25:37.769Z,148
2017-04-18T06:26:18.387Z,156
2017-04-18T06:26:59.035Z,172
2017-04-18T06:27:39.599Z,200
2017-04-18T06:28:20.246Z,204
2017-04-18T06:29:00.826Z,184
2017-04-18T06:29:41.445Z,168
2017-04-18T06:30:21.996Z,160
2017-04-18T06:31:02.545Z,176
2017-04-18T06:31:43.093Z,176
2017-04-18T06:32:23.664Z,176
2017-04-18T06:33:04.186Z,176
2017-04-18T06:33:44.746Z,172
2017-04-18T06:34:25.284Z,144
2017-04-18T06:35:05.902Z,112
2017-04-18T06:35:46.455Z,104
2017-04-18T06:36:27.309Z,116
2017-04-18T06:37:07.877Z,120
2017-04-18T06:37:48.605Z,112
2017-04-18T06:38:29.199Z,120
2017-04-18T06:39:09.775Z,160
2017-04-18T06:39:50.411Z,164
2017-04-18T06:40:30.935Z,160
2017-04-18T06:41:11.460Z,136
2017-04-18T06:41:52.106Z,120
2017-04-18T06:42:32.660Z,120
2017-04-18T06:43:13.679Z,112
2017-04-18T06:43:54.345Z,108
2017-04-18T06:44:34.976Z,108
2017-04-18T06:45:15.593Z,108
2017-04-18T06:45:56.122Z,108
2017-04-18T06:46:36.664Z,108
2017-04-18T06:47:17.340Z,104
2017-04-18T06:47:57.882Z,108
2017-04-18T06:48:38.589Z,112
2017-04-18T06:49:19.115Z,120
2017-04-18T06:50:00.658Z,124
2017-04-18T06:50:41.259Z,108
2017-04-18T06:51:21.889Z,108
2017-04-18T06:52:02.393Z,112
2017-04-18T06:52:42.916Z,112
2017-04-18T06:53:23.478Z,116
2017-04-18T06:54:04.145Z,120
2017-04-18T06:54:44.769Z,120
2017-04-18T06:55:25.275Z,124
2017-04-18T06:56:05.871Z,128
2017-04-18T06:56:46.394Z,132
2017-04-18T06:57:26.973Z,156
2017-04-18T06:58:07.497Z,184
2017-04-18T06:58:48.099Z,200
2017-04-18T06:59:29.018Z,192
2017-04-18T07:00:09.725Z,184
2017-04-18T07:00:50.262Z,192
2017-04-18T07:01:30.787Z,216
2017-04-18T07:02:11.411Z,256
2017-04-18T07:02:51.926Z,288
2017-04-18T07:03:32.466Z,248
2017-04-18T07:04:13.018Z,204
2017-04-18T07:04:53.642Z,164
2017-04-18T07:05:34.192Z,132
2017-04-18T07:06:14.725Z,124
2017-04-18T07:06:55.408Z,124
2017-04-18T07:07:35.996Z,124
2017-04-18T07:08:16.533Z,120
2017-04-18T07:08:57.253Z,116
2017-04-18T07:09:37.803Z,128
2017-04-18T07:10:18.369Z,172
2017-04-18T07:10:59.019Z,188
2017-04-18T07:11:39.554Z,232
2017-04-18T07:12:20.120Z,248
2017-04-18T07:13:00.655Z,248
2017-04-18T07:13:41.208Z,272
2017-04-18T07:14:21.761Z,272
2017-04-18T07:15:02.265Z,228
2017-04-18T07:15:42.966Z,180
2017-04-18T07:16:23.501Z,180
2017-04-18T07:17:04.168Z,140
2017-04-18T07:17:44.691Z,132
2017-04-18T07:18:25.229Z,132
2017-04-18T07:19:05.780Z,124
2017-04-18T07:19:46.389Z,128
2017-04-18T07:20:27.024Z,124
2017-04-18T07:21:07.601Z,120
2017-04-18T07:21:48.176Z,124
2017-04-18T07:22:28.837Z,156
2017-04-18T07:23:09.379Z,168
2017-04-18T07:23:49.955Z,152
2017-04-18T07:24:30.607Z,144
2017-04-18T07:25:11.160Z,136
2017-04-18T07:25:52.705Z,128
2017-04-18T07:26:33.267Z,128
2017-04-18T07:27:13.863Z,128
2017-04-18T07:27:54.394Z,132
2017-04-18T07:28:35.001Z,124
2017-04-18T07:29:15.561Z,124
2017-04-18T07:29:56.165Z,116
2017-04-18T07:30:36.693Z,120
2017-04-18T07:31:17.280Z,120
2017-04-18T07:31:57.903Z,120
2017-04-18T07:32:38.471Z,120
2017-04-18T07:33:19.003Z,116
2017-04-18T07:33:59.576Z,120
2017-04-18T07:34:40.178Z,116
2017-04-18T07:35:20.775Z,120
2017-04-18T07:36:01.307Z,124
2017-04-18T07:36:41.983Z,124
2017-04-18T07:37:22.571Z,128
2017-04-18T07:38:03.163Z,128
2017-04-18T07:38:43.706Z,128
2017-04-18T07:39:24.281Z,128
2017-04-18T07:40:04.807Z,128
2017-04-18T07:40:45.508Z,136
2017-04-18T07:41:26.112Z,132
2017-04-18T07:42:06.715Z,140
2017-04-18T07:42:47.298Z,136
2017-04-18T07:43:27.809Z,140
2017-04-18T07:44:08.434Z,144
2017-04-18T07:44:48.938Z,148
2017-04-18T07:45:29.522Z,120
2017-04-18T07:46:10.052Z,140
2017-04-18T07:46:50.579Z,172
2017-04-18T07:47:31.291Z,168
2017-04-18T07:48:11.842Z,124
2017-04-18T07:48:52.387Z,172
2017-04-18T07:49:32.948Z,168
2017-04-18T07:50:13.477Z,172
2017-04-18T07:50:55.172Z,172
2017-04-18T07:51:35.735Z,132
2017-04-18T07:52:16.291Z,152
2017-04-18T07:52:56.917Z,192
2017-04-18T07:53:37.586Z,184
2017-04-18T07:54:18.101Z,180
2017-04-18T07:54:58.697Z,180
2017-04-18T07:55:39.310Z,180
2017-04-18T07:56:19.897Z,176
2017-04-18T07:57:00.401Z,148
2017-04-18T07:57:41.059Z,188
2017-04-18T07:58:21.667Z,204
2017-04-18T07:59:02.264Z,224
2017-04-18T07:59:42.757Z,200
2017-04-18T08:00:23.370Z,188
2017-04-18T08:01:03.921Z,184
2017-04-18T08:01:44.507Z,192
2017-04-18T08:02:25.121Z,300
2017-04-18T08:03:06.850Z,396
2017-04-18T08:03:47.403Z,432
2017-04-18T08:04:28.040Z,404
2017-04-18T08:05:08.628Z,340
2017-04-18T08:05:49.151Z,292
2017-04-18T08:06:29.657Z,268
2017-04-18T08:07:10.202Z,280
2017-04-18T08:07:50.773Z,328
2017-04-18T08:08:31.328Z,388
2017-04-18T08:09:12.102Z,424
2017-04-18T08:09:52.710Z,428
2017-04-18T08:10:33.336Z,400
2017-04-18T08:11:13.937Z,344
2017-04-18T08:11:54.459Z,316
2017-04-18T08:12:35.977Z,380
2017-04-18T08:13:16.503Z,380
2017-04-18T08:13:57.018Z,328
2017-04-18T08:14:38.620Z,448
2017-04-18T08:15:19.190Z,588
2017-04-18T08:15:59.766Z,592
2017-04-18T08:16:40.360Z,584
2017-04-18T08:17:20.885Z,420
2017-04-18T08:18:01.444Z,344
2017-04-18T08:18:42.131Z,276
2017-04-18T08:19:22.752Z,244
2017-04-18T08:20:03.311Z,192
2017-04-18T08:20:43.823Z,228
2017-04-18T08:21:24.346Z,268
2017-04-18T08:22:04.893Z,332
2017-04-18T08:22:45.417Z,400
2017-04-18T08:23:25.966Z,396
2017-04-18T08:24:06.477Z,480
2017-04-18T08:24:47.099Z,544
2017-04-18T08:25:27.606Z,568
2017-04-18T08:26:08.198Z,564
2017-04-18T08:26:48.713Z,504
2017-04-18T08:27:29.303Z,340
2017-04-18T08:28:09.845Z,204
2017-04-18T08:28:50.358Z,164
2017-04-18T08:29:30.895Z,148
2017-04-18T08:30:11.500Z,176
2017-04-18T08:30:52.080Z,240
2017-04-18T08:31:32.698Z,224
2017-04-18T08:32:13.256Z,152
2017-04-18T08:32:53.763Z,104
2017-04-18T08:33:34.296Z,84
2017-04-18T08:34:14.907Z,80
2017-04-18T08:34:55.471Z,72
2017-04-18T08:35:36.101Z,60
2017-04-18T08:36:16.663Z,64
2017-04-18T08:36:57.324Z,84
2017-04-18T08:37:37.861Z,92
2017-04-18T08:38:18.394Z,96
2017-04-18T08:38:58.909Z,108
2017-04-18T08:39:39.471Z,100
2017-04-18T08:40:20.097Z,124
2017-04-18T08:41:00.699Z,288
2017-04-18T08:41:41.214Z,348
2017-04-18T08:42:21.815Z,252
2017-04-18T08:43:02.487Z,240
2017-04-18T08:43:43.084Z,200
2017-04-18T08:44:23.747Z,120
2017-04-18T08:45:04.328Z,128
2017-04-18T08:45:44.965Z,148
2017-04-18T08:46:25.492Z,192
2017-04-18T08:47:06.147Z,212
2017-04-18T08:47:46.711Z,200
2017-04-18T08:48:27.374Z,180
2017-04-18T08:49:07.991Z,176
2017-04-18T08:49:48.496Z,180
2017-04-18T08:50:29.058Z,184
2017-04-18T08:51:09.598Z,212
2017-04-18T08:51:50.156Z,280
2017-04-18T08:52:30.808Z,324
2017-04-18T08:53:11.343Z,276
2017-04-18T08:53:51.895Z,300
2017-04-18T08:54:32.458Z,284
2017-04-18T08:55:13.037Z,212
2017-04-18T08:55:53.558Z,168
2017-04-18T08:56:34.221Z,172
2017-04-18T08:57:14.803Z,156
2017-04-18T08:57:55.347Z,144
2017-04-18T08:58:35.883Z,124
2017-04-18T08:59:16.416Z,108
2017-04-18T08:59:56.940Z,100
2017-04-18T09:00:37.566Z,100
2017-04-18T09:01:18.165Z,92
2017-04-18T09:01:58.787Z,84
2017-04-18T09:02:39.295Z,76
2017-04-18T09:03:19.802Z,68
2017-04-18T09:04:00.406Z,64
2017-04-18T09:04:41.018Z,56
2017-04-18T09:05:21.539Z,52
2017-04-18T09:06:02.092Z,52
2017-04-18T09:06:42.697Z,52
2017-04-18T09:07:23.413Z,52
2017-04-18T09:08:04.025Z,56
2017-04-18T09:08:44.669Z,56
2017-04-18T09:09:25.274Z,60
2017-04-18T09:10:05.825Z,60
2017-04-18T09:10:46.374Z,60
2017-04-18T09:11:26.909Z,68
2017-04-18T09:12:07.504Z,84
2017-04-18T09:12:48.033Z,108
2017-04-18T09:13:28.592Z,128
2017-04-18T09:14:09.213Z,140
2017-04-18T09:14:49.790Z,148
2017-04-18T09:15:30.319Z,148
2017-04-18T09:16:10.933Z,160
2017-04-18T09:16:51.533Z,168
2017-04-18T09:17:32.099Z,176
2017-04-18T09:18:12.606Z,188
2017-04-18T09:18:53.157Z,196
2017-04-18T09:19:33.888Z,248
2017-04-18T09:20:14.413Z,272
2017-04-18T09:20:55.030Z,256
2017-04-18T09:21:35.708Z,252
2017-04-18T09:22:16.259Z,260
2017-04-18T09:22:56.810Z,268
2017-04-18T09:23:37.326Z,248
2017-04-18T09:24:18.024Z,220
2017-04-18T09:24:58.562Z,208
2017-04-18T09:25:39.095Z,196
2017-04-18T09:26:19.778Z,188
2017-04-18T09:27:00.338Z,180
2017-04-18T09:27:41.439Z,184
2017-04-18T09:28:22.007Z,204
2017-04-18T09:29:02.693Z,192
2017-04-18T09:29:43.219Z,168
2017-04-18T09:30:23.905Z,144
2017-04-18T09:31:04.500Z,132
2017-04-18T09:31:45.021Z,132
2017-04-18T09:32:25.547Z,144
2017-04-18T09:33:06.207Z,156
2017-04-18T09:33:46.784Z,160
2017-04-18T09:34:28.400Z,156
2017-04-18T09:35:09.079Z,148
2017-04-18T09:35:49.591Z,128
2017-04-18T09:36:30.209Z,120
2017-04-18T09:37:10.822Z,112
2017-04-18T09:37:51.485Z,108
2017-04-18T09:38:32.195Z,96
2017-04-18T09:39:12.895Z,80
2017-04-18T09:39:53.549Z,76
2017-04-18T09:40:34.097Z,68
2017-04-18T09:41:14.751Z,68
2017-04-18T09:41:55.403Z,64
2017-04-18T09:42:36.044Z,52
2017-04-18T09:43:16.813Z,40
2017-04-18T09:43:57.477Z,40
2017-04-18T09:44:38.044Z,48
2017-04-18T09:45:18.669Z,68
2017-04-18T09:45:59.323Z,84
2017-04-18T09:46:39.892Z,88
2017-04-18T09:47:20.587Z,84
2017-04-18T09:48:01.276Z,84
2017-04-18T09:48:41.776Z,92
2017-04-18T09:49:22.389Z,120
2017-04-18T09:50:04.011Z,144
2017-04-18T09:50:44.701Z,188
2017-04-18T09:51:25.232Z,244
2017-04-18T09:52:05.934Z,316
2017-04-18T09:52:46.569Z,364
2017-04-18T09:53:27.217Z,492
2017-04-18T09:54:08.274Z,1060
2017-04-18T09:54:48.938Z,1184
2017-04-18T09:55:29.460Z,924
2017-04-18T09:56:10.165Z,1240
2017-04-18T09:56:50.779Z,1268
2017-04-18T09:57:31.436Z,1424
2017-04-18T09:58:12.268Z,1424
2017-04-18T09:58:52.951Z,1092
2017-04-18T09:59:33.458Z,1156
2017-04-18T10:00:14.156Z,1056
2017-04-18T10:00:54.814Z,476
2017-04-18T10:01:35.460Z,416
2017-04-18T10:02:16.153Z,444
2017-04-18T10:02:56.656Z,1232
2017-04-18T10:03:37.327Z,1396
2017-04-18T10:04:17.976Z,1220
2017-04-18T10:04:58.623Z,1364
2017-04-18T10:05:39.134Z,1356
2017-04-18T10:06:19.821Z,572
2017-04-18T10:07:00.350Z,480
2017-04-18T10:07:41.040Z,464
2017-04-18T10:08:21.732Z,392
2017-04-18T10:09:02.437Z,536
2017-04-18T10:09:42.963Z,412
2017-04-18T10:10:23.653Z,356
2017-04-18T10:11:04.343Z,364
2017-04-18T10:11:44.937Z,344
2017-04-18T10:12:25.600Z,296
2017-04-18T10:13:06.255Z,284
2017-04-18T10:13:46.907Z,260
2017-04-18T10:14:27.679Z,272
2017-04-18T10:15:08.315Z,400
2017-04-18T10:15:48.969Z,544
2017-04-18T10:16:29.605Z,652
2017-04-18T10:17:10.170Z,556
2017-04-18T10:17:50.839Z,464
2017-04-18T10:18:31.453Z,796
2017-04-18T10:19:12.129Z,460
2017-04-18T10:19:52.652Z,348
2017-04-18T10:20:33.334Z,232
2017-04-18T10:21:13.931Z,216
2017-04-18T10:21:54.536Z,248
2017-04-18T10:22:35.190Z,436
2017-04-18T10:23:15.836Z,540
2017-04-18T10:23:56.491Z,560
2017-04-18T10:24:37.150Z,568
2017-04-18T10:25:17.799Z,608
2017-04-18T10:25:58.455Z,696
2017-04-18T10:26:39.109Z,816
2017-04-18T10:27:19.769Z,1028
2017-04-18T10:28:00.417Z,1248
2017-04-18T10:28:41.067Z,1240
2017-04-18T10:29:21.714Z,1080
2017-04-18T10:30:02.379Z,788
2017-04-18T10:30:43.019Z,900
2017-04-18T10:31:23.678Z,768
2017-04-18T10:32:04.332Z,392
2017-04-18T10:32:44.979Z,436
2017-04-18T10:33:25.634Z,376
2017-04-18T10:34:06.295Z,300
2017-04-18T10:34:46.937Z,240
2017-04-18T10:35:27.595Z,196
2017-04-18T10:36:08.242Z,196
2017-04-18T10:36:48.902Z,140
2017-04-18T10:37:29.548Z,116
2017-04-18T10:38:10.100Z,112
2017-04-18T10:38:50.753Z,108
2017-04-18T10:39:31.410Z,104
2017-04-18T10:40:12.064Z,96
2017-04-18T10:40:52.719Z,92
2017-04-18T10:41:33.335Z,88
2017-04-18T10:42:13.853Z,92
2017-04-18T10:42:54.445Z,112
2017-04-18T10:43:34.990Z,540
2017-04-18T10:44:15.588Z,200
2017-04-18T10:44:56.201Z,240
2017-04-18T10:45:36.729Z,256
2017-04-18T10:46:17.421Z,696
2017-04-18T10:46:58.007Z,856
2017-04-18T10:47:38.622Z,872
2017-04-18T10:48:19.212Z,800
2017-04-18T10:49:00.235Z,648
2017-04-18T10:49:40.834Z,428
2017-04-18T10:50:21.376Z,308
2017-04-18T10:51:02.020Z,304
2017-04-18T10:51:42.593Z,424
2017-04-18T10:52:23.090Z,488
2017-04-18T10:53:03.680Z,388
2017-04-18T10:53:44.205Z,304
2017-04-18T10:54:24.748Z,184
2017-04-18T10:55:05.329Z,124
2017-04-18T10:55:45.853Z,104
2017-04-18T10:56:26.483Z,104
2017-04-18T10:57:07.087Z,104
2017-04-18T10:57:47.597Z,112
2017-04-18T10:58:28.200Z,128
2017-04-18T10:59:08.801Z,148
2017-04-18T10:59:49.400Z,156
2017-04-18T11:00:29.905Z,176
2017-04-18T11:01:10.490Z,276
2017-04-18T11:01:51.007Z,444
2017-04-18T11:02:31.702Z,564
2017-04-18T11:03:12.248Z,636
2017-04-18T11:03:52.809Z,588
2017-04-18T11:04:34.441Z,600
2017-04-18T11:05:15.024Z,596
2017-04-18T11:05:57.629Z,420
2017-04-18T11:06:38.183Z,284
2017-04-18T11:07:18.837Z,220
2017-04-18T11:07:59.379Z,168
2017-04-18T11:08:39.927Z,148
2017-04-18T11:09:20.491Z,136
2017-04-18T11:10:01.135Z,116
2017-04-18T11:10:41.792Z,100
2017-04-18T11:11:22.350Z,100
2017-04-18T11:12:02.909Z,100
2017-04-18T11:12:43.562Z,96
2017-04-18T11:13:24.139Z,92
2017-04-18T11:14:04.750Z,88
2017-04-18T11:14:45.264Z,96
2017-04-18T11:15:25.848Z,100
2017-04-18T11:16:06.909Z,112
2017-04-18T11:16:47.473Z,124
2017-04-18T11:17:28.014Z,132
2017-04-18T11:18:08.529Z,144
2017-04-18T11:18:49.105Z,152
2017-04-18T11:19:29.727Z,168
2017-04-18T11:20:10.313Z,172
2017-04-18T11:20:50.836Z,188
2017-04-18T11:21:31.446Z,292
2017-04-18T11:22:12.077Z,628
2017-04-18T11:22:52.721Z,508
2017-04-18T11:23:33.250Z,360
2017-04-18T11:24:13.939Z,448
2017-04-18T11:24:54.724Z,464
2017-04-18T11:30:48.624Z,396
2017-04-18T11:31:30.477Z,424
2017-04-18T11:32:12.336Z,336
2017-04-18T11:32:53.623Z,152
2017-04-18T11:33:35.836Z,144
2017-04-18T11:34:16.791Z,172
2017-04-18T11:34:57.743Z,176
2017-04-18T11:35:39.415Z,192
2017-04-18T11:36:20.813Z,172
2017-04-18T11:37:02.632Z,204
2017-04-18T11:37:45.593Z,172
2017-04-18T11:38:26.935Z,156
2017-04-18T11:39:08.783Z,140
2017-04-18T11:39:50.048Z,124
2017-04-18T11:40:31.526Z,112
2017-04-18T11:41:13.423Z,104
2017-04-18T11:41:54.875Z,100
2017-04-18T11:42:36.757Z,100
2017-04-18T11:43:18.638Z,108
2017-04-18T11:44:00.726Z,112
2017-04-18T11:44:42.000Z,116
2017-04-18T11:45:24.182Z,116
2017-04-18T11:46:05.762Z,120
2017-04-18T11:46:48.673Z,124
2017-04-18T11:47:30.337Z,140
2017-04-18T11:48:11.609Z,144
2017-04-18T11:48:53.798Z,140
2017-04-18T11:49:35.682Z,140
2017-04-18T11:50:17.148Z,136
2017-04-18T11:50:58.726Z,140
2017-04-18T11:51:40.012Z,152
2017-04-18T11:52:21.873Z,152
2017-04-18T11:53:03.657Z,144
2017-04-18T11:53:45.569Z,144
2017-04-18T11:54:27.723Z,116
2017-04-18T11:55:09.046Z,112
2017-04-18T11:55:50.690Z,116
2017-04-18T11:56:32.917Z,124
2017-04-18T11:57:14.228Z,144
2017-04-18T11:57:55.640Z,200
2017-04-18T11:58:37.172Z,200
2017-04-18T11:59:19.114Z,172
2017-04-18T12:00:00.841Z,152
2017-04-18T12:00:42.717Z,136
2017-04-18T12:01:24.551Z,124
2017-04-18T12:02:05.889Z,132
2017-04-18T12:02:47.942Z,124
2017-04-18T12:03:29.722Z,116
2017-04-18T12:04:11.201Z,140